Time;durP1;ratioP1;P1;durP2;ratioP2;P2;SDS_P1;SDS_P2;PMS_P1;PMS_P2;Temp;Humidity;BMP_temperature;BMP_pressure;BME280_temperature;BME280_humidity;BME280_pressure;Samples;Min_cycle;Max_cycle;Signal;HPM_P1;HPM_P2
2022/04/18 00:01:43;;;;;;;0.00;0.00;;;;;;;10.05;75.49;100845.88;7352180;19;20015;-63
2022/04/18 00:04:08;;;;;;;0.00;0.00;;;;;;;10.03;75.08;100850.25;7361169;19;20476;-64
2022/04/18 00:06:36;;;;;;;0.00;0.00;;;;;;;9.84;75.53;100830.63;7356542;19;20014;-62
2022/04/18 00:09:03;;;;;;;0.00;0.00;;;;;;;9.87;75.27;100844.44;7357018;19;20122;-64
2022/04/18 00:11:28;;;;;;;0.00;0.00;;;;;;;9.93;75.38;100855.66;7361182;19;20645;-64
2022/04/18 00:13:54;;;;;;;0.00;0.00;;;;;;;9.87;75.34;100856.63;7357066;19;20008;-63
2022/04/18 00:16:19;;;;;;;0.00;0.00;;;;;;;9.83;75.69;100860.16;7360973;19;20006;-63
2022/04/18 00:18:45;;;;;;;0.00;0.00;;;;;;;9.79;74.68;100868.94;7355495;19;20383;-65
2022/04/18 00:21:10;;;;;;;0.00;0.00;;;;;;;9.77;75.22;100870.69;7353762;19;20018;-64
2022/04/18 00:23:36;;;;;;;0.00;0.00;;;;;;;9.74;75.52;100871.63;7363403;19;20033;-63
2022/04/18 00:26:02;;;;;;;0.00;0.00;;;;;;;9.58;75.44;100855.38;7355431;19;20019;-64
2022/04/18 00:28:27;;;;;;;0.10;0.10;;;;;;;9.68;75.45;100876.06;7356155;19;20101;-64
2022/04/18 00:30:53;;;;;;;0.00;0.00;;;;;;;9.65;75.12;100877.00;7360033;19;20010;-64
2022/04/18 00:33:18;;;;;;;0.05;0.05;;;;;;;9.61;75.59;100886.59;7355264;19;20745;-64
2022/04/18 00:35:44;;;;;;;0.00;0.00;;;;;;;9.56;75.68;100888.41;7358919;19;20018;-63
2022/04/18 00:38:09;;;;;;;0.00;0.00;;;;;;;9.55;75.18;100889.31;7352280;19;20018;-63
2022/04/18 00:40:35;;;;;;;0.00;0.00;;;;;;;9.52;75.97;100891.94;7353826;19;20878;-63
2022/04/18 00:43:07;;;;;;;0.00;0.00;;;;;;;9.49;75.33;100886.81;7350519;19;20010;-64
2022/04/18 00:45:33;;;;;;;0.10;0.10;;;;;;;9.44;75.65;100886.00;7355552;19;20025;-63
2022/04/18 00:47:58;;;;;;;0.00;0.00;;;;;;;9.44;75.68;100898.19;7350427;19;20006;-63
2022/04/18 00:50:26;;;;;;;0.00;0.00;;;;;;;9.40;75.52;100894.75;7344641;19;20011;-62
2022/04/18 00:52:55;;;;;;;0.00;0.00;;;;;;;9.39;74.73;100894.78;7356848;19;20018;-63
2022/04/18 00:55:22;;;;;;;0.00;0.00;;;;;;;9.34;75.34;100903.53;7357275;19;20751;-63
2022/04/18 00:57:48;;;;;;;0.00;0.00;;;;;;;9.31;75.02;100900.09;7361065;19;20006;-64
2022/04/18 01:00:14;;;;;;;0.00;0.00;;;;;;;9.29;75.17;100909.69;7358323;19;21033;-63
2022/04/18 01:02:40;;;;;;;0.00;0.00;;;;;;;9.26;75.41;100912.31;7359044;19;20486;-62
2022/04/18 01:05:07;;;;;;;0.00;0.00;;;;;;;9.12;75.64;100896.00;7357633;19;20042;-62
2022/04/18 01:07:34;;;;;;;0.00;0.00;;;;;;;9.08;76.31;100895.22;7358364;19;20034;-63
2022/04/18 01:10:01;;;;;;;0.00;0.00;;;;;;;9.01;75.79;100891.81;7358750;19;20810;-62
2022/04/18 01:12:26;;;;;;;0.00;0.00;;;;;;;9.13;75.55;100913.41;7357085;19;20086;-61
2022/04/18 01:14:52;;;;;;;0.00;0.00;;;;;;;9.09;75.90;100913.44;7354269;19;20119;-62
2022/04/18 01:17:17;;;;;;;0.00;0.00;;;;;;;9.05;75.62;100924.75;7361143;19;20572;-64
2022/04/18 01:19:43;;;;;;;0.00;0.00;;;;;;;9.04;75.89;100920.44;7351336;19;20017;-63
2022/04/18 01:22:09;;;;;;;0.00;0.00;;;;;;;9.02;76.06;100924.81;7358861;19;20027;-63
2022/04/18 01:30:07;;;;;;;0.00;0.00;;;;;;;8.93;76.06;100940.56;7354452;19;20018;-64
2022/04/18 01:32:32;;;;;;;0.00;0.00;;;;;;;8.86;76.07;100931.06;7350676;19;20010;-62
2022/04/18 01:34:58;;;;;;;0.00;0.00;;;;;;;8.86;76.17;100936.28;7349089;19;20771;-62
2022/04/18 01:37:24;;;;;;;0.00;0.00;;;;;;;8.82;76.59;100935.47;7360508;19;20013;-63
2022/04/18 01:39:50;;;;;;;0.00;0.00;;;;;;;8.79;76.89;100935.50;7358506;19;21008;-62
2022/04/18 01:42:16;;;;;;;0.00;0.00;;;;;;;8.79;76.87;100934.66;7356388;19;20010;-62
2022/04/18 01:44:42;;;;;;;0.00;0.00;;;;;;;8.75;76.89;100933.81;7359069;19;20074;-63
2022/04/18 01:47:07;;;;;;;0.00;0.00;;;;;;;8.62;76.41;100921.81;7335305;19;20029;-63
2022/04/18 01:49:33;;;;;;;0.00;0.00;;;;;;;8.71;76.54;100937.31;7354997;19;20645;-63
2022/04/18 01:51:59;;;;;;;0.00;0.00;;;;;;;8.65;76.05;100926.97;7361702;19;20031;-60
2022/04/18 01:54:24;;;;;;;0.00;0.00;;;;;;;8.67;75.85;100934.75;7357131;19;20012;-63
2022/04/18 01:56:49;;;;;;;0.00;0.00;;;;;;;8.65;76.09;100939.13;7358323;19;20836;-64
2022/04/18 01:59:15;;;;;;;0.00;0.00;;;;;;;8.62;76.64;100942.66;7347015;19;20014;-62
2022/04/18 02:01:40;;;;;;;0.00;0.00;;;;;;;8.61;76.47;100934.84;7357301;19;20018;-62
2022/04/18 02:04:07;;;;;;;0.00;0.00;;;;;;;8.57;76.30;100940.09;7352845;19;20469;-62
2022/04/18 02:06:33;;;;;;;0.00;0.00;;;;;;;8.55;76.15;100941.84;7324836;19;20074;-62
2022/04/18 02:08:58;;;;;;;0.08;0.08;;;;;;;8.49;76.34;100931.50;7350646;19;20007;-63
2022/04/18 02:11:24;;;;;;;0.10;0.10;;;;;;;8.40;76.55;100921.16;7349985;19;20018;-63
2022/04/18 02:13:49;;;;;;;0.10;0.10;;;;;;;8.45;76.19;100929.78;7351454;19;20022;-64
2022/04/18 02:16:14;;;;;;;0.00;0.00;;;;;;;8.43;75.77;100936.78;7347296;19;20612;-64
2022/04/18 02:18:40;;;;;;;0.00;0.00;;;;;;;8.39;75.25;100926.41;7354405;19;20021;-63
2022/04/18 02:21:07;;;;;;;0.10;0.10;;;;;;;8.38;75.08;100932.50;7347854;19;20050;-63
2022/04/18 02:23:32;;;;;;;0.00;0.00;;;;;;;8.24;75.49;100914.38;7353053;19;20011;-62
2022/04/18 02:25:58;;;;;;;0.00;0.00;;;;;;;8.30;75.38;100935.13;7353891;19;20102;-64
2022/04/18 02:28:23;;;;;;;0.00;0.00;;;;;;;8.26;75.20;100923.00;7352330;19;20006;-63
2022/04/18 02:30:48;;;;;;;0.00;0.00;;;;;;;8.24;75.49;100914.38;7343111;19;20010;-62
2022/04/18 02:33:14;;;;;;;0.05;0.05;;;;;;;8.06;75.59;100889.41;7352554;19;20052;-63
2022/04/18 02:35:39;;;;;;;0.00;0.00;;;;;;;8.10;75.61;100916.22;7353594;19;20006;-62
2022/04/18 02:38:05;;;;;;;0.05;0.05;;;;;;;8.15;75.25;100930.06;7356852;19;20022;-62
2022/04/18 02:40:30;;;;;;;0.00;0.00;;;;;;;8.11;75.89;100926.66;7355171;19;20025;-63
2022/04/18 02:42:55;;;;;;;0.00;0.00;;;;;;;8.09;75.63;100930.13;7332495;19;20026;-62
2022/04/18 02:45:21;;;;;;;0.10;0.10;;;;;;;8.05;75.76;100924.94;7353276;19;20038;-63
2022/04/18 02:47:48;;;;;;;0.00;0.00;;;;;;;7.99;75.90;100922.38;7355950;19;20021;-63
2022/04/18 02:50:14;;;;;;;0.00;0.00;;;;;;;8.02;75.93;100924.13;7337665;19;20471;-63
2022/04/18 02:52:39;;;;;;;0.00;0.00;;;;;;;8.01;76.00;100933.66;7342278;19;20021;-64
2022/04/18 02:55:06;;;;;;;0.00;0.00;;;;;;;8.00;76.20;100942.31;7345597;19;20493;-64
2022/04/18 02:57:31;;;;;;;0.00;0.00;;;;;;;7.99;76.28;100932.78;7352887;19;20026;-62
2022/04/18 02:59:57;;;;;;;0.00;0.00;;;;;;;7.99;76.12;100944.94;7351985;19;20628;-62
2022/04/18 03:02:22;;;;;;;0.00;0.00;;;;;;;7.91;76.03;100932.00;7354086;19;20609;-62
2022/04/18 03:04:47;;;;;;;0.00;0.00;;;;;;;7.98;76.46;100943.22;7350694;19;20022;-63
2022/04/18 03:07:13;;;;;;;0.00;0.00;;;;;;;7.97;76.39;100952.75;7347674;19;20038;-62
2022/04/18 03:09:38;;;;;;;0.00;0.00;;;;;;;7.97;77.04;100957.97;7352686;19;20023;-61
2022/04/18 03:12:06;;;;;;;0.10;0.10;;;;;;;7.97;76.78;100947.56;7353815;19;20038;-61
2022/04/18 03:14:32;;;;;;;0.10;0.10;;;;;;;7.85;76.56;100926.84;7356096;19;20064;-63
2022/04/18 03:16:58;;;;;;;0.00;0.00;;;;;;;7.92;76.25;100936.34;7356982;19;20017;-63
2022/04/18 03:19:24;;;;;;;0.00;0.00;;;;;;;7.98;76.31;100944.06;7352099;19;20010;-63
2022/04/18 03:21:50;;;;;;;0.00;0.00;;;;;;;7.83;76.94;100907.81;7356630;19;20026;-63
2022/04/18 03:24:15;;;;;;;0.00;0.00;;;;;;;8.00;76.51;100939.72;7349869;19;20038;-62
2022/04/18 03:26:41;;;;;;;0.05;0.05;;;;;;;8.00;76.69;100939.72;7361834;19;20011;-62
2022/04/18 03:29:06;;;;;;;0.00;0.00;;;;;;;8.01;76.46;100941.47;7355355;19;20007;-61
2022/04/18 03:31:32;;;;;;;0.00;0.00;;;;;;;8.01;76.26;100938.88;7354967;19;20003;-62
2022/04/18 03:33:57;;;;;;;0.00;0.00;;;;;;;8.02;75.94;100939.72;7357336;19;20010;-61
2022/04/18 03:41:50;;;;;;;0.00;0.00;;;;;;;7.91;75.74;100926.81;7350509;19;20106;-62
2022/04/18 03:44:17;;;;;;;0.00;0.00;;;;;;;7.89;76.01;100917.28;7355176;19;20019;-64
2022/04/18 03:46:43;;;;;;;0.00;0.00;;;;;;;7.99;75.71;100930.19;7359802;19;20450;-63
2022/04/18 03:49:08;;;;;;;0.00;0.00;;;;;;;7.98;75.67;100928.47;7353362;19;20006;-64
2022/04/18 03:51:34;;;;;;;0.00;0.00;;;;;;;7.86;76.01;100912.97;7346338;19;20017;-64
2022/04/18 03:53:59;;;;;;;0.00;0.00;;;;;;;7.97;76.03;100937.16;7355734;19;20056;-63
2022/04/18 03:56:25;;;;;;;0.00;0.00;;;;;;;7.98;76.35;100943.22;7354915;19;20081;-63
2022/04/18 03:58:50;;;;;;;0.00;0.00;;;;;;;7.97;76.36;100937.16;7357871;19;20002;-63
2022/04/18 04:01:15;;;;;;;0.00;0.00;;;;;;;7.98;76.63;100949.28;7356653;19;20013;-63
2022/04/18 04:03:41;;;;;;;0.03;0.03;;;;;;;7.98;76.24;100944.06;7357425;19;20557;-63
2022/04/18 04:06:06;;;;;;;0.00;0.00;;;;;;;7.99;76.91;100951.00;7354722;19;20007;-61
2022/04/18 04:08:32;;;;;;;0.00;0.00;;;;;;;7.98;77.12;100959.69;7358558;19;20749;-64
2022/04/18 04:10:58;;;;;;;0.00;0.00;;;;;;;8.00;77.31;100960.50;7355314;19;20089;-62
2022/04/18 04:13:23;;;;;;;0.00;0.00;;;;;;;8.00;77.46;100965.72;7348325;19;20098;-64
2022/04/18 04:15:49;;;;;;;0.00;0.00;;;;;;;8.02;77.38;100960.53;7353932;19;20052;-62
2022/04/18 04:18:14;;;;;;;0.10;0.10;;;;;;;8.04;77.62;100953.56;7354380;19;20015;-63
2022/04/18 04:20:40;;;;;;;0.00;0.00;;;;;;;8.04;77.43;100949.22;7356238;19;20030;-63
2022/04/18 04:23:05;;;;;;;0.00;0.00;;;;;;;7.98;77.22;100938.88;7353691;19;20027;-63
2022/04/18 04:25:31;;;;;;;0.10;0.10;;;;;;;7.97;77.39;100931.94;7357339;19;20369;-63
2022/04/18 04:27:56;;;;;;;0.00;0.00;;;;;;;8.09;77.19;100956.13;7354172;19;20021;-63
2022/04/18 04:30:21;;;;;;;0.00;0.00;;;;;;;8.10;77.43;100957.84;7354317;19;20006;-63
2022/04/18 04:32:50;;;;;;;0.00;0.00;;;;;;;8.04;77.37;100951.81;7350427;19;20031;-63
2022/04/18 04:35:16;;;;;;;0.00;0.00;;;;;;;8.09;77.04;100956.97;7339354;19;20081;-63
2022/04/18 04:37:42;;;;;;;0.00;0.00;;;;;;;7.92;76.95;100940.69;7359542;19;20082;-64
2022/04/18 04:40:08;;;;;;;0.00;0.00;;;;;;;8.10;76.62;100973.44;7342970;19;20113;-63
2022/04/18 04:42:34;;;;;;;0.00;0.00;;;;;;;7.91;76.60;100945.00;7359449;19;20017;-63
2022/04/18 04:44:59;;;;;;;0.00;0.00;;;;;;;8.06;77.30;100972.63;7350541;19;20011;-63
2022/04/18 04:47:25;;;;;;;0.00;0.00;;;;;;;7.97;77.05;100963.16;7342562;19;20007;-63
2022/04/18 04:49:50;;;;;;;0.00;0.00;;;;;;;8.03;77.34;100975.25;7359016;19;20007;-63
2022/04/18 04:52:16;;;;;;;0.10;0.10;;;;;;;8.01;77.12;100975.28;7358157;19;20018;-62
2022/04/18 04:54:41;;;;;;;0.00;0.00;;;;;;;8.00;76.82;100970.91;7362259;19;20047;-62
2022/04/18 04:57:06;;;;;;;0.10;0.10;;;;;;;7.98;76.41;100969.22;7362676;19;20043;-63
2022/04/18 04:59:32;;;;;;;0.00;0.00;;;;;;;7.95;76.38;100970.09;7362774;19;20347;-63
2022/04/18 05:01:57;;;;;;;0.00;0.00;;;;;;;7.93;76.56;100966.66;7359831;19;20022;-61
2022/04/18 05:04:25;;;;;;;0.10;0.10;;;;;;;7.90;76.96;100966.66;7365189;19;20014;-63
2022/04/18 05:06:51;;;;;;;;;;;;;;;7.91;75.70;100963.22;7357818;19;20024;-64
2022/04/18 05:09:16;;;;;;;0.00;0.00;;;;;;;7.87;76.53;100961.50;7361949;19;19927;-64
2022/04/18 05:11:46;;;;;;;0.10;0.10;;;;;;;7.84;77.13;100958.91;7355941;19;20014;-63
2022/04/18 05:14:12;;;;;;;0.00;0.00;;;;;;;7.83;77.19;100961.53;7362828;19;20020;-64
2022/04/18 05:16:39;;;;;;;0.00;0.00;;;;;;;7.83;77.47;100965.00;7361706;19;20010;-63
2022/04/18 05:19:05;;;;;;;0.00;0.00;;;;;;;7.81;76.87;100964.16;7362946;19;20006;-64
2022/04/18 05:21:31;;;;;;;0.10;0.10;;;;;;;7.81;76.82;100961.56;7361599;19;20601;-62
2022/04/18 05:23:56;;;;;;;0.10;0.10;;;;;;;7.80;76.75;100960.66;7359696;19;20020;-64
2022/04/18 05:26:22;;;;;;;0.10;0.10;;;;;;;7.80;76.68;100959.81;7363770;19;20022;-63
2022/04/18 05:28:47;;;;;;;0.00;0.00;;;;;;;7.81;76.47;100961.56;7361719;19;20021;-63
2022/04/18 05:31:12;;;;;;;0.00;0.00;;;;;;;7.80;76.34;100959.81;7354092;19;20346;-63
2022/04/18 05:33:38;;;;;;;0.00;0.00;;;;;;;7.79;76.22;100960.69;7360101;19;20011;-63
2022/04/18 05:36:03;;;;;;;0.00;0.00;;;;;;;7.80;76.77;100954.59;7354815;19;20403;-63
2022/04/18 05:38:29;;;;;;;0.00;0.00;;;;;;;7.77;76.44;100965.91;7361192;19;20016;-63
2022/04/18 05:40:54;;;;;;;0.10;0.10;;;;;;;7.80;76.49;100970.22;7363871;19;20010;-63
2022/04/18 05:43:20;;;;;;;0.00;0.00;;;;;;;7.80;76.71;100967.59;7349273;19;20025;-62
2022/04/18 05:45:50;;;;;;;0.00;0.00;;;;;;;7.80;76.66;100973.66;7359517;19;20021;-64
2022/04/18 05:48:16;;;;;;;0.10;0.10;;;;;;;7.77;76.67;100965.03;7354061;19;20034;-63
2022/04/18 05:50:45;;;;;;;0.10;0.10;;;;;;;7.83;76.81;100975.41;7355751;19;20015;-63
2022/04/18 05:53:14;;;;;;;0.05;0.05;;;;;;;7.84;77.03;100976.25;7362792;19;20006;-63
2022/04/18 05:55:39;;;;;;;0.10;0.10;;;;;;;7.86;76.73;100980.59;7353536;19;20032;-62
2022/04/18 05:58:05;;;;;;;0.10;0.10;;;;;;;7.82;76.95;100973.69;7359139;19;20003;-63
2022/04/18 06:00:34;;;;;;;0.00;0.00;;;;;;;7.89;76.85;100985.75;7363287;19;20469;-63
2022/04/18 06:03:00;;;;;;;0.00;0.00;;;;;;;7.90;76.40;100982.25;7362709;19;20046;-63
2022/04/18 06:05:26;;;;;;;0.00;0.00;;;;;;;7.87;76.47;100987.50;7360786;19;20015;-63
2022/04/18 06:07:52;;;;;;;0.00;0.00;;;;;;;7.90;76.25;100990.06;7354302;19;20327;-63
2022/04/18 06:10:17;;;;;;;0.08;0.08;;;;;;;7.90;76.44;100994.41;7345574;19;20463;-64
2022/04/18 06:12:43;;;;;;;0.00;0.00;;;;;;;7.92;76.45;101001.34;7356325;19;20018;-62
2022/04/18 06:15:08;;;;;;;0.00;0.00;;;;;;;7.92;76.38;101001.34;7361459;19;20575;-63
2022/04/18 06:17:34;;;;;;;0.05;0.05;;;;;;;7.84;76.62;100987.50;7363115;19;20018;-62
2022/04/18 06:20:01;;;;;;;0.00;0.00;;;;;;;7.94;76.02;101009.97;7360260;19;20010;-63
2022/04/18 06:22:26;;;;;;;0.00;0.00;;;;;;;7.92;76.63;101005.69;7360089;19;20026;-63
2022/04/18 06:24:51;;;;;;;0.00;0.00;;;;;;;7.96;76.72;101013.44;7359081;19;20006;-62
2022/04/18 06:27:17;;;;;;;0.08;0.08;;;;;;;7.98;76.29;101014.28;7359963;19;20037;-63
2022/04/18 06:29:42;;;;;;;0.10;0.10;;;;;;;8.00;76.46;101017.72;7344973;19;20023;-63
2022/04/18 06:32:08;;;;;;;0.00;0.00;;;;;;;7.71;76.34;100965.09;7358275;19;20037;-63
2022/04/18 06:34:33;;;;;;;0.00;0.00;;;;;;;7.96;76.27;101003.06;7356499;19;20014;-63
2022/04/18 06:36:59;;;;;;;0.00;0.00;;;;;;;8.06;76.39;101015.13;7349598;19;20031;-63
2022/04/18 06:39:24;;;;;;;0.00;0.00;;;;;;;8.10;76.26;101009.88;7358488;19;20013;-63
2022/04/18 06:41:49;;;;;;;0.00;0.00;;;;;;;8.00;76.10;100994.31;7350530;19;20019;-63
2022/04/18 06:44:15;;;;;;;0.00;0.00;;;;;;;8.15;76.08;101015.91;7358216;19;20032;-63
2022/04/18 06:46:40;;;;;;;0.00;0.00;;;;;;;8.12;76.58;100998.59;7360349;19;20016;-64
2022/04/18 06:49:06;;;;;;;0.00;0.00;;;;;;;8.27;76.35;101016.69;7354316;19;20014;-63
2022/04/18 06:51:31;;;;;;;0.00;0.00;;;;;;;8.34;76.16;101017.47;7347330;19;20554;-63
2022/04/18 06:53:57;;;;;;;0.08;0.08;;;;;;;8.40;75.72;101014.00;7353478;19;20015;-64
2022/04/18 06:59:06;;;;;;;0.10;0.10;;;;;;;8.49;76.20;101019.97;7354289;19;20614;-63
2022/04/18 07:01:31;;;;;;;0.00;0.00;;;;;;;8.57;75.78;101031.19;7335866;19;20006;-63
2022/04/18 07:03:57;;;;;;;0.00;0.00;;;;;;;8.64;76.00;101028.53;7358556;19;20026;-63
2022/04/18 07:06:23;;;;;;;0.00;0.00;;;;;;;8.69;75.88;101032.81;7354479;19;20026;-62
2022/04/18 07:08:48;;;;;;;0.00;0.00;;;;;;;8.72;75.75;101026.72;7354381;19;20029;-63
2022/04/18 07:11:14;;;;;;;0.10;0.10;;;;;;;8.78;76.12;101031.88;7346963;19;20014;-63
2022/04/18 07:13:39;;;;;;;0.00;0.00;;;;;;;8.83;75.51;101040.50;7354360;19;20014;-63
2022/04/18 07:16:07;;;;;;;0.00;0.00;;;;;;;8.88;75.64;101043.91;7350652;19;20470;-63
2022/04/18 07:18:33;;;;;;;0.00;0.00;;;;;;;8.91;76.05;101046.47;7356800;19;20048;-63
2022/04/18 07:20:58;;;;;;;0.00;0.00;;;;;;;8.96;75.91;101042.06;7357061;19;20477;-63
2022/04/18 07:23:23;;;;;;;0.00;0.00;;;;;;;9.01;75.98;101045.50;7341516;19;20014;-64
2022/04/18 07:25:49;;;;;;;0.00;0.00;;;;;;;9.05;75.97;101041.97;7349602;19;20366;-63
2022/04/18 07:28:14;;;;;;;0.00;0.00;;;;;;;9.10;76.21;101036.72;7342877;19;20127;-63
2022/04/18 07:30:40;;;;;;;0.10;0.10;;;;;;;9.15;76.03;101047.09;7349319;19;20010;-63
2022/04/18 07:33:05;;;;;;;0.03;0.03;;;;;;;9.22;76.03;101048.75;7355670;19;20012;-63
2022/04/18 07:35:30;;;;;;;0.00;0.00;;;;;;;9.29;75.92;101051.28;7347846;19;20010;-63
2022/04/18 07:40:42;;;;;;;0.10;0.10;;;;;;;9.40;75.46;101051.13;7343421;19;20490;-63
2022/04/18 07:43:08;;;;;;;0.00;0.00;;;;;;;9.45;75.14;101053.69;7355552;19;20010;-63
2022/04/18 07:45:36;;;;;;;0.00;0.00;;;;;;;9.52;75.31;101057.94;7352686;19;20073;-63
2022/04/18 07:48:01;;;;;;;0.00;0.00;;;;;;;9.55;74.83;101058.78;7348598;19;20014;-63
2022/04/18 07:51:31;;;;;;;0.00;0.00;;;;;;;9.57;75.24;101057.00;7354482;19;20061;-63
2022/04/18 07:53:12;;;;;;;0.00;0.00;;;;;;;9.63;74.94;101066.50;7348130;19;20567;-63
2022/04/18 07:55:37;;;;;;;0.00;0.00;;;;;;;9.71;74.65;101063.78;7350371;19;20011;-62
2022/04/18 07:58:03;;;;;;;0.00;0.00;;;;;;;9.77;74.66;101054.13;7350100;19;20014;-64
2022/04/18 08:00:28;;;;;;;0.00;0.00;;;;;;;9.86;74.97;101064.44;7355574;19;20043;-63
2022/04/18 08:02:53;;;;;;;0.00;0.00;;;;;;;9.96;74.92;101059.09;7349161;19;20565;-63
2022/04/18 08:05:19;;;;;;;0.00;0.00;;;;;;;10.05;74.62;101069.41;7354442;19;20017;-64
2022/04/18 08:07:44;;;;;;;0.00;0.00;;;;;;;10.08;74.42;101054.53;7346000;19;22642;-63
2022/04/18 08:10:09;;;;;;;0.00;0.00;;;;;;;10.21;74.60;101059.59;7347999;19;21003;-64
2022/04/18 08:12:35;;;;;;;0.10;0.10;;;;;;;10.32;74.94;101068.16;7344920;19;20022;-63
2022/04/18 08:15:00;;;;;;;0.00;0.00;;;;;;;10.31;74.46;101048.16;7346160;19;20540;-64
2022/04/18 08:17:26;;;;;;;0.00;0.00;;;;;;;10.50;74.14;101062.63;7348104;19;20331;-63
2022/04/18 08:19:51;;;;;;;0.10;0.10;;;;;;;10.60;73.90;101064.22;7349536;19;20011;-64
2022/04/18 08:22:17;;;;;;;0.00;0.00;;;;;;;10.59;74.11;101041.59;7348903;19;20270;-63
2022/04/18 08:24:42;;;;;;;0.00;0.00;;;;;;;10.78;73.44;101062.16;7349327;19;20028;-63
2022/04/18 08:27:08;;;;;;;0.00;0.00;;;;;;;10.83;73.40;101061.19;7355782;19;20026;-60
2022/04/18 08:29:33;;;;;;;0.03;0.03;;;;;;;10.84;73.85;101047.22;7355088;19;20006;-63
2022/04/18 08:31:59;;;;;;;0.00;0.00;;;;;;;10.98;73.38;101067.88;7353897;19;20115;-63
2022/04/18 08:34:24;;;;;;;0.00;0.00;;;;;;;11.04;73.01;101070.38;7348737;19;20086;-62
2022/04/18 08:36:49;;;;;;;0.00;0.00;;;;;;;11.10;73.25;101067.66;7358502;19;20002;-62
2022/04/18 08:39:15;;;;;;;0.00;0.00;;;;;;;11.21;72.58;101077.06;7356962;19;20828;-62
2022/04/18 08:41:44;;;;;;;0.10;0.10;;;;;;;11.27;72.63;101083.00;7357959;19;20006;-63
2022/04/18 08:44:11;;;;;;;0.00;0.00;;;;;;;11.30;72.13;101076.84;7355510;19;20018;-62
2022/04/18 08:46:37;;;;;;;0.00;0.00;;;;;;;11.35;71.92;101080.22;7344535;19;20019;-61
2022/04/18 08:54:32;;;;;;;0.00;0.00;;;;;;;11.58;71.58;101071.94;7359305;19;20017;-62
2022/04/18 08:56:57;;;;;;;0.08;0.08;;;;;;;11.68;71.79;101074.31;7357429;19;20003;-63
2022/04/18 08:59:23;;;;;;;0.00;0.00;;;;;;;11.88;71.57;101070.44;7351606;19;20571;-62
2022/04/18 09:01:50;;;;;;;0.00;0.00;;;;;;;12.04;71.34;101074.44;7357817;19;20010;-62
2022/04/18 09:04:18;;;;;;;0.00;0.00;;;;;;;12.30;70.98;101086.06;7346799;19;20904;-63
2022/04/18 09:06:43;;;;;;;;;;;;;;;12.64;72.18;101084.34;7332678;19;20033;-62
2022/04/18 09:09:08;;;;;;;0.00;0.00;;;;;;;12.70;70.29;101078.94;7340431;19;19923;-63
2022/04/18 09:11:40;;;;;;;0.03;0.03;;;;;;;12.90;69.47;101074.97;7343702;19;20022;-63
2022/04/18 09:14:11;;;;;;;0.00;0.00;;;;;;;12.96;69.11;101059.91;7354065;19;20018;-62
2022/04/18 09:16:38;;;;;;;0.00;0.00;;;;;;;13.23;68.80;101079.34;7343696;19;20090;-63
2022/04/18 09:19:05;;;;;;;0.00;0.00;;;;;;;13.40;68.77;101067.50;7354908;19;20488;-62
2022/04/18 09:21:31;;;;;;;;;;;;;;;13.71;70.26;101077.97;7341017;19;20434;-63
2022/04/18 09:23:57;;;;;;;0.10;0.10;;;;;;;13.83;67.84;101085.47;7348106;19;19933;-63
2022/04/18 09:26:24;;;;;;;0.03;0.03;;;;;;;14.08;67.17;101072.44;7355028;19;20918;-63
2022/04/18 09:28:49;;;;;;;0.05;0.05;;;;;;;14.25;66.95;101070.16;7346589;19;20015;-63
2022/04/18 09:31:24;;;;;;;0.00;0.00;;;;;;;14.52;66.49;101072.84;7357620;19;20041;-63
2022/04/18 09:33:56;;;;;;;0.00;0.00;;;;;;;14.75;66.26;101070.31;7356163;19;20015;-63
2022/04/18 09:36:23;;;;;;;0.10;0.10;;;;;;;14.98;65.78;101080.00;7358074;19;20018;-62
2022/04/18 09:38:54;;;;;;;0.10;0.10;;;;;;;15.24;65.81;101076.44;7355110;19;20002;-63
2022/04/18 09:41:24;;;;;;;0.00;0.00;;;;;;;15.56;65.53;101082.31;7356908;19;20039;-62
2022/04/18 09:43:55;;;;;;;0.10;0.10;;;;;;;15.72;63.69;101078.25;7353156;19;21340;-62
2022/04/18 09:46:21;;;;;;;0.00;0.00;;;;;;;15.93;63.12;101080.97;7353383;19;20033;-61
2022/04/18 09:48:49;;;;;;;0.10;0.10;;;;;;;16.10;62.37;101078.50;7354171;19;20014;-63
2022/04/18 09:51:25;;;;;;;0.00;0.00;;;;;;;16.27;64.30;101076.09;7353467;19;20038;-62
2022/04/18 09:53:57;;;;;;;0.03;0.03;;;;;;;16.33;61.73;101086.38;7360298;19;20006;-63
2022/04/18 09:56:23;;;;;;;0.03;0.03;;;;;;;16.18;62.11;101071.19;7361791;19;20028;-62
2022/04/18 09:58:49;;;;;;;0.07;0.07;;;;;;;16.19;61.53;101083.41;7350037;19;20015;-62
2022/04/18 10:01:16;;;;;;;0.00;0.00;;;;;;;16.12;62.20;101067.91;7358459;19;20006;-63
2022/04/18 10:03:43;;;;;;;0.00;0.00;;;;;;;16.07;61.46;101082.16;7357675;19;20033;-60
2022/04/18 10:06:10;;;;;;;0.10;0.10;;;;;;;16.05;62.06;101076.06;7358794;19;20017;-62
2022/04/18 10:08:36;;;;;;;0.00;0.00;;;;;;;16.01;60.98;101068.34;7357783;19;20025;-62
2022/04/18 10:11:04;;;;;;;0.10;0.10;;;;;;;15.97;62.32;101072.03;7353659;19;20007;-63
2022/04/18 10:13:31;;;;;;;0.10;0.10;;;;;;;15.92;63.10;101063.44;7358508;19;20012;-63
2022/04/18 10:15:58;;;;;;;0.00;0.00;;;;;;;16.02;62.09;101068.28;7357071;19;20142;-61
2022/04/18 10:18:24;;;;;;;0.00;0.00;;;;;;;16.13;60.96;101067.88;7360706;19;20651;-63
2022/04/18 10:21:08;;;;;;;0.10;0.10;;;;;;;16.23;62.74;101063.09;7354992;19;20094;-62
2022/04/18 10:23:58;;;;;;;0.00;0.00;;;;;;;16.14;62.05;101069.56;7355764;19;20091;-62
2022/04/18 10:26:47;;;;;;;0.00;0.00;;;;;;;16.05;63.26;101069.94;7351658;19;20089;-62
2022/04/18 10:29:24;;;;;;;0.00;0.00;;;;;;;15.92;61.26;101063.44;7355565;19;20006;-62
2022/04/18 10:31:52;;;;;;;0.00;0.00;;;;;;;15.82;59.34;101063.81;7356493;19;20869;-63
2022/04/18 10:34:22;;;;;;;0.00;0.00;;;;;;;15.74;59.99;101052.69;7353566;19;20491;-62
2022/04/18 10:36:52;;;;;;;0.03;0.03;;;;;;;15.64;60.69;101056.59;7354349;19;20006;-62
2022/04/18 10:39:19;;;;;;;0.10;0.10;;;;;;;15.48;60.52;101048.38;7360993;19;20030;-62
2022/04/18 10:41:47;;;;;;;0.10;0.10;;;;;;;15.44;61.05;101056.44;7356358;19;20037;-62
2022/04/18 10:44:12;;;;;;;;;;;;;;;15.44;63.46;101052.03;7352409;19;20097;-62
2022/04/18 10:46:55;;;;;;;0.00;0.00;;;;;;;15.32;63.10;101049.88;7362280;19;19919;-63
2022/04/18 10:49:26;;;;;;;0.00;0.00;;;;;;;15.23;64.46;101053.69;7354312;19;21110;-63
2022/04/18 10:51:53;;;;;;;0.05;0.05;;;;;;;15.17;63.48;101048.66;7357218;19;20030;-62
2022/04/18 10:54:20;;;;;;;0.00;0.00;;;;;;;15.14;61.60;101048.75;7355796;19;20104;-62
2022/04/18 10:57:00;;;;;;;0.00;0.00;;;;;;;15.15;60.68;101058.38;7355388;19;20014;-62
2022/04/18 10:59:34;;;;;;;0.00;0.00;;;;;;;15.15;60.47;101049.63;7355859;19;20082;-62
2022/04/18 11:02:02;;;;;;;0.00;0.00;;;;;;;15.19;59.26;101041.56;7355551;19;20014;-62
2022/04/18 11:04:29;;;;;;;0.00;0.00;;;;;;;15.47;59.24;101051.09;7359494;19;20027;-63
2022/04/18 11:07:05;;;;;;;0.00;0.00;;;;;;;15.63;61.16;101054.88;7352632;19;20033;-62
2022/04/18 11:09:35;;;;;;;0.08;0.08;;;;;;;15.71;58.81;101055.47;7348431;19;20023;-62
2022/04/18 11:12:09;;;;;;;0.00;0.00;;;;;;;15.73;57.49;101048.34;7356818;19;20098;-63
2022/04/18 11:14:38;;;;;;;0.10;0.10;;;;;;;15.77;58.50;101044.69;7352501;19;20025;-63
2022/04/18 11:17:05;;;;;;;0.10;0.10;;;;;;;15.62;58.61;101034.72;7353536;19;20021;-62
2022/04/18 11:19:31;;;;;;;0.00;0.00;;;;;;;15.66;58.81;101040.72;7350588;19;20045;-63
2022/04/18 11:21:58;;;;;;;0.00;0.00;;;;;;;15.67;60.25;101045.09;7350970;19;20379;-62
2022/04/18 11:24:38;;;;;;;0.00;0.00;;;;;;;15.93;61.81;101044.09;7358126;19;20014;-62
2022/04/18 11:27:09;;;;;;;0.10;0.10;;;;;;;16.23;59.28;101042.84;7355612;19;20015;-62
2022/04/18 11:29:35;;;;;;;0.00;0.00;;;;;;;16.48;58.39;101047.13;7347422;19;20014;-62
2022/04/18 11:32:01;;;;;;;0.10;0.10;;;;;;;16.72;57.50;101040.81;7360749;19;20352;-62
2022/04/18 11:34:28;;;;;;;0.10;0.10;;;;;;;17.02;59.25;101041.28;7351965;19;20788;-63
2022/04/18 11:36:59;;;;;;;0.00;0.00;;;;;;;17.32;59.82;101028.50;7358523;19;20481;-63
2022/04/18 11:39:40;;;;;;;0.10;0.10;;;;;;;17.94;59.65;101038.88;7358414;19;20373;-62
2022/04/18 11:42:06;;;;;;;0.10;0.10;;;;;;;18.25;54.12;101041.75;7354421;19;20391;-62
2022/04/18 11:44:42;;;;;;;0.05;0.05;;;;;;;18.63;58.64;101038.97;7357735;19;20014;-63
2022/04/18 11:47:12;;;;;;;0.10;0.10;;;;;;;18.77;54.62;101033.88;7355913;19;20024;-63
2022/04/18 11:49:39;;;;;;;0.10;0.10;;;;;;;18.78;54.05;101046.16;7356465;19;20024;-63
2022/04/18 11:52:06;;;;;;;0.07;0.07;;;;;;;18.62;52.52;101021.41;7354838;19;20059;-62